Terminal Aerodrome Forecast
Issued by NWS

Home | Current Version | Previous Version | Graphics & Text | Print | Product List | Glossary On
Versions: 1 2 3 4 5 6 7 8 9 10 11 12 13 14
000
FTUS45 KGGW 221120
TAFGDV
TAF
KGDV 221120Z 2212/2312 30008KT P6SM FEW160
     FM221700 31015G25KT P6SM FEW150
     FM230500 01007KT P6SM SKC
     FM230900 06006KT P6SM SKC=

USA.gov is the U.S. government's official web portal to all federal, state and local government web resources and services.